Time;durP1;ratioP1;P1;durP2;ratioP2;P2;SDS_P1;SDS_P2;PMS_P1;PMS_P2;Temp;Humidity;BMP_temperature;BMP_pressure;BME280_temperature;BME280_humidity;BME280_pressure;Samples;Min_cycle;Max_cycle;Signal;HPM_P1;HPM_P2
2021/11/05 00:00:14;;;;;;;1999.90;999.90;;;14.80;99.90;;;;;;5112917;28;20249;-70
2021/11/05 00:02:41;;;;;;;1999.90;999.90;;;14.80;99.90;;;;;;5114578;28;20163;-70
2021/11/05 00:05:08;;;;;;;1999.90;999.90;;;14.80;99.90;;;;;;5116666;28;20164;-70
2021/11/05 00:07:35;;;;;;;1999.90;999.90;;;14.80;99.90;;;;;;5116534;28;20171;-71
2021/11/05 00:10:02;;;;;;;1999.90;999.90;;;14.70;99.90;;;;;;5116499;28;20167;-70
2021/11/05 00:12:29;;;;;;;1999.90;999.90;;;14.70;99.90;;;;;;5116610;28;20182;-71
2021/11/05 00:14:55;;;;;;;1999.90;999.90;;;14.70;99.90;;;;;;5116353;28;20174;-71
2021/11/05 00:17:22;;;;;;;1999.90;999.90;;;14.70;99.90;;;;;;5116333;28;20159;-71
2021/11/05 00:19:49;;;;;;;1999.90;999.90;;;14.80;99.90;;;;;;5116394;28;20163;-71
2021/11/05 00:22:16;;;;;;;1999.90;999.90;;;14.70;99.90;;;;;;5116205;28;20254;-68
2021/11/05 00:24:43;;;;;;;1999.90;999.90;;;14.70;99.90;;;;;;5116109;28;20217;-71
2021/11/05 00:27:10;;;;;;;1999.90;999.90;;;14.70;99.90;;;;;;5116207;28;20634;-71
2021/11/05 00:29:37;;;;;;;1999.90;999.90;;;14.70;99.90;;;;;;5116228;28;20200;-72
2021/11/05 00:32:05;;;;;;;1999.90;999.90;;;14.80;99.90;;;;;;5116041;28;20202;-71
2021/11/05 00:34:31;;;;;;;1999.90;999.90;;;14.80;99.90;;;;;;5116195;28;20629;-71
2021/11/05 00:36:58;;;;;;;1999.90;999.90;;;14.80;99.90;;;;;;5116174;28;20167;-71
2021/11/05 00:39:25;;;;;;;1999.90;999.90;;;14.80;99.90;;;;;;5116020;28;20178;-70
2021/11/05 00:41:52;;;;;;;1999.90;999.90;;;14.70;99.90;;;;;;5115916;28;20203;-72
2021/11/05 00:44:19;;;;;;;1999.90;999.90;;;14.70;99.90;;;;;;5115727;28;20205;-71
2021/11/05 00:46:46;;;;;;;1999.90;999.90;;;14.70;99.90;;;;;;5115637;28;20175;-72
2021/11/05 00:49:12;;;;;;;1999.90;999.90;;;14.70;99.90;;;;;;5115788;28;20532;-72
2021/11/05 00:51:39;;;;;;;1999.90;999.90;;;14.80;99.90;;;;;;5115502;28;20171;-70
2021/11/05 00:54:08;;;;;;;1999.90;999.90;;;14.70;99.90;;;;;;5115722;28;20653;-68
2021/11/05 00:56:35;;;;;;;1999.90;999.90;;;14.80;99.90;;;;;;5115492;28;20257;-69
2021/11/05 00:59:03;;;;;;;1999.90;999.90;;;14.70;99.90;;;;;;5115548;28;20632;-69
2021/11/05 01:01:30;;;;;;;1999.90;999.90;;;14.60;99.90;;;;;;5115412;28;20163;-70
2021/11/05 01:03:56;;;;;;;1999.90;999.90;;;14.70;99.90;;;;;;5115154;28;20369;-71
2021/11/05 01:06:23;;;;;;;1999.90;999.90;;;14.70;99.90;;;;;;5115388;27;20191;-72
2021/11/05 01:08:50;;;;;;;1999.90;999.90;;;14.70;99.90;;;;;;5115475;28;20210;-71
2021/11/05 01:11:17;;;;;;;1999.90;999.90;;;14.60;99.90;;;;;;5115370;28;20167;-71
2021/11/05 01:13:48;;;;;;;1999.90;999.90;;;14.60;99.90;;;;;;5115135;28;20205;-71
2021/11/05 01:16:16;;;;;;;1999.90;999.90;;;14.60;99.90;;;;;;5115385;28;20171;-70
2021/11/05 01:18:42;;;;;;;1999.90;999.90;;;14.50;99.90;;;;;;5115372;28;20191;-70
2021/11/05 01:21:09;;;;;;;1999.90;999.90;;;14.50;99.90;;;;;;5115218;28;20167;-71
2021/11/05 01:23:36;;;;;;;1999.90;999.90;;;14.50;99.90;;;;;;5115233;28;20194;-71
2021/11/05 01:26:03;;;;;;;1999.90;999.90;;;14.40;99.90;;;;;;5115138;28;20159;-71
2021/11/05 01:28:30;;;;;;;1999.90;999.90;;;14.40;99.90;;;;;;5113649;28;20170;-72
2021/11/05 01:30:57;;;;;;;1999.90;999.90;;;14.40;99.90;;;;;;5115006;28;20185;-70
2021/11/05 01:33:24;;;;;;;1999.90;999.90;;;14.30;99.90;;;;;;5114903;28;20159;-72
2021/11/05 01:35:51;;;;;;;1999.90;999.90;;;14.30;99.90;;;;;;5114997;28;20167;-71
2021/11/05 01:38:18;;;;;;;1999.90;999.90;;;14.30;99.90;;;;;;5114634;28;20173;-71
2021/11/05 01:40:46;;;;;;;1999.90;999.90;;;14.30;99.90;;;;;;5114915;27;20174;-71
2021/11/05 01:43:14;;;;;;;1999.90;999.90;;;14.30;99.90;;;;;;5114755;28;20219;-71
2021/11/05 01:45:43;;;;;;;1999.90;999.90;;;14.20;99.90;;;;;;5114726;28;20175;-71
2021/11/05 01:48:10;;;;;;;1999.90;999.90;;;14.30;99.90;;;;;;5114710;28;20173;-70
2021/11/05 01:50:38;;;;;;;1999.90;999.90;;;14.30;99.90;;;;;;5114639;28;20194;-70
2021/11/05 01:53:05;;;;;;;1999.90;999.90;;;14.20;99.90;;;;;;5114598;28;20575;-71
2021/11/05 01:55:32;;;;;;;1999.90;999.90;;;14.20;99.90;;;;;;5114453;28;20633;-71
2021/11/05 01:57:59;;;;;;;1999.90;999.90;;;14.20;99.90;;;;;;5114471;28;20182;-70
2021/11/05 02:00:29;;;;;;;1999.90;999.90;;;14.10;99.90;;;;;;5114353;28;20163;-71
2021/11/05 02:02:57;;;;;;;1999.90;999.90;;;14.10;99.90;;;;;;5114183;28;20277;-71
2021/11/05 02:05:24;;;;;;;1999.90;999.90;;;14.10;99.90;;;;;;5114328;28;20163;-71
2021/11/05 02:07:53;;;;;;;1999.90;999.90;;;14.10;99.90;;;;;;5114190;28;20163;-71
2021/11/05 02:10:26;;;;;;;1999.90;999.90;;;14.20;99.90;;;;;;5114291;28;20192;-71
2021/11/05 02:12:54;;;;;;;1999.90;999.90;;;14.20;99.90;;;;;;5114162;28;20180;-70
2021/11/05 02:15:21;;;;;;;1999.90;999.90;;;14.20;99.90;;;;;;5114079;28;20618;-71
2021/11/05 02:17:49;;;;;;;1999.90;999.90;;;14.20;99.90;;;;;;5114182;28;20661;-72
2021/11/05 02:20:20;;;;;;;1999.90;999.90;;;14.20;99.90;;;;;;5114138;28;20605;-70
2021/11/05 02:22:47;;;;;;;1999.90;999.90;;;14.20;99.90;;;;;;5114094;28;20272;-71
2021/11/05 02:25:16;;;;;;;1999.90;999.90;;;14.20;99.90;;;;;;5113260;28;20174;-72
2021/11/05 02:27:43;;;;;;;1999.90;999.90;;;14.20;99.90;;;;;;5113957;28;20169;-69
2021/11/05 02:30:12;;;;;;;1999.90;999.90;;;14.20;99.90;;;;;;5114152;28;20167;-70
2021/11/05 02:32:42;;;;;;;1999.90;999.90;;;14.20;99.90;;;;;;5113996;28;20181;-69
2021/11/05 02:35:10;;;;;;;1999.90;999.90;;;14.20;99.90;;;;;;5114228;28;20163;-72
2021/11/05 02:37:37;;;;;;;1999.90;999.90;;;14.10;99.90;;;;;;5114042;28;20163;-71
2021/11/05 02:40:05;;;;;;;1999.90;999.90;;;14.10;99.90;;;;;;5113774;28;20253;-71
2021/11/05 02:42:33;;;;;;;1999.90;999.90;;;14.10;99.90;;;;;;5113617;28;20632;-72
2021/11/05 02:45:00;;;;;;;1999.90;999.90;;;14.10;99.90;;;;;;5113523;28;20191;-72
2021/11/05 02:47:28;;;;;;;1999.90;999.90;;;14.20;99.90;;;;;;5113662;28;20170;-70
2021/11/05 02:50:01;;;;;;;1999.90;999.90;;;14.20;99.90;;;;;;5113712;28;20170;-71
2021/11/05 02:52:28;;;;;;;1999.90;999.90;;;14.20;99.90;;;;;;5113241;28;20214;-71
2021/11/05 02:54:55;;;;;;;1999.90;999.90;;;14.20;99.90;;;;;;5113708;28;20196;-72
2021/11/05 02:57:28;;;;;;;1999.90;999.90;;;14.20;99.90;;;;;;5113429;28;20713;-71
2021/11/05 02:59:55;;;;;;;1999.90;999.90;;;14.20;99.90;;;;;;5113380;28;20167;-71
2021/11/05 03:02:26;;;;;;;1999.90;999.90;;;14.10;99.90;;;;;;5113467;28;20174;-71
2021/11/05 03:04:54;;;;;;;1999.90;999.90;;;14.20;99.90;;;;;;5113367;28;20286;-71
2021/11/05 03:07:22;;;;;;;1999.90;999.90;;;14.10;99.90;;;;;;5113500;28;20194;-71
2021/11/05 03:09:49;;;;;;;1999.90;999.90;;;14.00;99.90;;;;;;5112911;28;20531;-70
2021/11/05 03:12:16;;;;;;;1999.90;999.90;;;13.90;99.90;;;;;;5112107;28;20207;-70
2021/11/05 03:14:43;;;;;;;1999.90;999.90;;;14.00;99.90;;;;;;5113488;28;20175;-71
2021/11/05 03:17:12;;;;;;;1999.90;999.90;;;14.00;99.90;;;;;;5112061;28;20265;-72
2021/11/05 03:19:39;;;;;;;1999.90;999.90;;;14.00;99.90;;;;;;5113456;28;20167;-70
2021/11/05 03:22:06;;;;;;;1999.90;999.90;;;14.00;99.90;;;;;;5113255;28;20179;-71
2021/11/05 03:24:34;;;;;;;1999.90;999.90;;;14.00;99.90;;;;;;5113297;28;20290;-71
2021/11/05 03:27:01;;;;;;;1999.90;999.90;;;14.00;99.90;;;;;;5113133;28;20175;-68
2021/11/05 03:29:27;;;;;;;1999.90;999.90;;;13.90;99.90;;;;;;5113330;28;20246;-71
2021/11/05 03:31:54;;;;;;;1999.90;999.90;;;13.90;99.90;;;;;;5113307;28;20215;-71
2021/11/05 03:34:21;;;;;;;1999.90;999.90;;;14.00;99.90;;;;;;5111670;28;20626;-71
2021/11/05 03:36:48;;;;;;;1999.90;999.90;;;14.00;99.90;;;;;;5114783;28;20303;-68
2021/11/05 03:39:15;;;;;;;1999.90;999.90;;;14.00;99.90;;;;;;5117258;28;20171;-72
2021/11/05 03:41:43;;;;;;;1999.90;999.90;;;14.00;99.90;;;;;;5116904;28;20269;-71
2021/11/05 03:44:10;;;;;;;1999.90;999.90;;;14.00;99.90;;;;;;5117080;27;20260;-70
2021/11/05 03:46:37;;;;;;;1999.90;999.90;;;14.00;99.90;;;;;;5117085;28;20622;-71
2021/11/05 03:49:07;;;;;;;1999.90;999.90;;;14.00;99.90;;;;;;5116915;28;20220;-71
2021/11/05 03:51:34;;;;;;;1999.90;999.90;;;14.00;99.90;;;;;;5116664;28;20633;-70
2021/11/05 03:54:01;;;;;;;1999.90;999.90;;;14.00;99.90;;;;;;5116978;28;20530;-71
2021/11/05 03:56:29;;;;;;;1999.90;999.90;;;14.20;99.90;;;;;;5116757;28;20159;-71
2021/11/05 03:58:55;;;;;;;1999.90;999.90;;;14.10;99.90;;;;;;5116799;28;20175;-70
2021/11/05 04:01:22;;;;;;;1999.90;999.90;;;14.20;99.90;;;;;;5116831;28;20163;-71
2021/11/05 04:03:50;;;;;;;1999.90;999.90;;;14.20;99.90;;;;;;5116723;28;20219;-71
2021/11/05 04:06:19;;;;;;;1999.90;999.90;;;14.20;99.90;;;;;;5116757;28;20174;-72
2021/11/05 04:08:46;;;;;;;1999.90;999.90;;;14.20;99.90;;;;;;5115604;28;20574;-69
2021/11/05 04:11:15;;;;;;;1999.90;999.90;;;14.20;99.90;;;;;;5116666;28;20163;-71
2021/11/05 04:13:43;;;;;;;1999.90;999.90;;;14.20;99.90;;;;;;5116346;28;20189;-71
2021/11/05 04:16:10;;;;;;;1999.90;999.90;;;14.20;99.90;;;;;;5116228;28;20175;-70
2021/11/05 04:18:37;;;;;;;1999.90;999.90;;;14.20;99.90;;;;;;5116241;28;20194;-71
2021/11/05 04:21:04;;;;;;;1999.90;999.90;;;14.30;99.90;;;;;;5116137;28;20175;-71
2021/11/05 04:23:31;;;;;;;1999.90;999.90;;;14.40;99.90;;;;;;5116188;28;20202;-71
2021/11/05 04:25:58;;;;;;;1999.90;999.90;;;14.40;99.90;;;;;;5116300;28;20167;-69
2021/11/05 04:28:25;;;;;;;1999.90;999.90;;;14.50;99.90;;;;;;5116011;28;20246;-69
2021/11/05 04:30:52;;;;;;;1999.90;999.90;;;14.50;99.90;;;;;;5116274;28;20160;-71
2021/11/05 04:33:19;;;;;;;1999.90;999.90;;;14.50;99.90;;;;;;5116142;28;20246;-72
2021/11/05 04:35:46;;;;;;;1999.90;999.90;;;14.60;99.90;;;;;;5116146;28;20214;-69
2021/11/05 04:38:13;;;;;;;1999.90;999.90;;;14.60;99.90;;;;;;5116016;28;20171;-71
2021/11/05 04:40:41;;;;;;;1999.90;999.90;;;14.70;99.90;;;;;;5116031;28;20170;-69
2021/11/05 04:43:08;;;;;;;1999.90;999.90;;;14.80;99.90;;;;;;5115692;28;20187;-71
2021/11/05 04:45:35;;;;;;;1999.90;999.90;;;14.80;99.90;;;;;;5115688;28;20174;-70
2021/11/05 04:48:02;;;;;;;1999.90;999.90;;;14.90;99.90;;;;;;5114910;28;20168;-72
2021/11/05 04:50:29;;;;;;;1999.90;999.90;;;14.90;99.90;;;;;;5115694;28;20163;-71
2021/11/05 04:52:57;;;;;;;1999.90;999.90;;;15.00;99.90;;;;;;5115484;28;20203;-72
2021/11/05 04:55:24;;;;;;;1999.90;999.90;;;15.10;99.90;;;;;;5115367;28;20175;-69
2021/11/05 04:57:51;;;;;;;1999.90;999.90;;;15.20;99.90;;;;;;5115773;28;20160;-70
2021/11/05 05:00:22;;;;;;;1999.90;999.90;;;15.30;99.90;;;;;;5115697;28;20164;-71
2021/11/05 05:02:49;;;;;;;1999.90;999.90;;;15.40;99.90;;;;;;5115495;28;20147;-71
2021/11/05 05:05:17;;;;;;;1999.90;999.90;;;15.40;99.90;;;;;;5115430;28;20181;-70
2021/11/05 05:07:44;;;;;;;1999.90;999.90;;;15.50;99.90;;;;;;5115347;28;20167;-70
2021/11/05 05:10:11;;;;;;;1999.90;999.90;;;15.60;99.90;;;;;;5115255;28;20621;-71
2021/11/05 05:12:39;;;;;;;1999.90;999.90;;;15.60;99.90;;;;;;5115103;28;20613;-74
2021/11/05 05:15:08;;;;;;;1999.90;999.90;;;15.70;99.90;;;;;;5115111;28;20207;-70
2021/11/05 05:17:35;;;;;;;1999.90;999.90;;;15.80;99.90;;;;;;5114947;28;20254;-70
2021/11/05 05:20:04;;;;;;;1999.90;999.90;;;16.00;99.90;;;;;;5114886;28;20178;-71
2021/11/05 05:22:31;;;;;;;1999.90;999.90;;;16.00;99.90;;;;;;5113632;28;20167;-71
2021/11/05 05:24:58;;;;;;;1999.90;999.90;;;16.10;99.90;;;;;;5114763;28;20669;-70
2021/11/05 05:27:25;;;;;;;1999.90;999.90;;;16.30;99.90;;;;;;5114950;28;20254;-70
2021/11/05 05:29:52;;;;;;;1999.90;999.90;;;16.50;99.90;;;;;;5114745;28;20551;-72
2021/11/05 05:32:19;;;;;;;1999.90;999.90;;;16.60;99.90;;;;;;5114860;28;20163;-72
2021/11/05 05:34:46;;;;;;;1999.90;999.90;;;16.60;99.90;;;;;;5114743;28;20171;-71
2021/11/05 05:37:13;;;;;;;1999.90;999.90;;;16.70;99.90;;;;;;5114615;28;20163;-71
2021/11/05 05:39:39;;;;;;;1999.90;999.90;;;16.70;99.90;;;;;;5114522;28;20171;-71
2021/11/05 05:42:06;;;;;;;1999.90;999.90;;;16.80;99.90;;;;;;5114138;28;20207;-71
2021/11/05 05:44:34;;;;;;;1999.90;999.90;;;17.00;99.90;;;;;;5114386;28;20191;-71
2021/11/05 05:47:02;;;;;;;1999.90;999.90;;;17.20;99.90;;;;;;5114522;28;20170;-71
2021/11/05 05:49:29;;;;;;;1999.90;999.90;;;17.30;99.90;;;;;;5114393;28;20553;-71
2021/11/05 05:51:56;;;;;;;1999.90;999.90;;;17.20;99.90;;;;;;5114197;28;20211;-70
2021/11/05 05:54:23;;;;;;;1999.90;999.90;;;17.10;99.90;;;;;;5114185;28;20261;-71
2021/11/05 05:56:50;;;;;;;1999.90;999.90;;;17.10;99.90;;;;;;5113972;28;20605;-71
2021/11/05 05:59:19;;;;;;;1999.90;999.90;;;17.10;99.90;;;;;;5113502;28;20171;-71
2021/11/05 06:01:46;;;;;;;1999.90;999.90;;;17.30;99.90;;;;;;5113514;28;20167;-68
2021/11/05 06:04:14;;;;;;;1999.90;999.90;;;17.50;99.90;;;;;;5114066;28;20223;-68
2021/11/05 06:06:40;;;;;;;1999.90;999.90;;;17.60;99.90;;;;;;5113952;28;20163;-73
2021/11/05 06:09:07;;;;;;;1999.90;999.90;;;17.80;99.90;;;;;;5113932;28;20220;-71
2021/11/05 06:11:34;;;;;;;1999.90;999.90;;;17.90;99.90;;;;;;5114042;28;20175;-66
2021/11/05 06:14:02;;;;;;;1999.90;999.90;;;18.10;99.90;;;;;;5114031;28;20175;-71
2021/11/05 06:16:29;;;;;;;1999.90;999.90;;;18.30;99.90;;;;;;5113872;28;20179;-73
2021/11/05 06:18:56;;;;;;;1999.90;999.90;;;18.30;99.90;;;;;;5113653;28;20584;-69
2021/11/05 06:21:25;;;;;;;1999.90;999.90;;;18.10;99.90;;;;;;5113432;28;20163;-65
2021/11/05 06:23:53;;;;;;;1999.90;999.90;;;18.20;99.90;;;;;;5113303;28;20238;-65
2021/11/05 06:26:20;;;;;;;1999.90;999.90;;;18.30;99.90;;;;;;5113496;28;20721;-64
2021/11/05 06:28:49;;;;;;;1999.90;999.90;;;18.60;99.90;;;;;;5113144;28;20175;-64
2021/11/05 06:31:16;;;;;;;1999.90;999.90;;;18.70;99.90;;;;;;5113447;28;20177;-66
2021/11/05 06:33:43;;;;;;;1999.90;999.90;;;18.90;99.90;;;;;;5113339;28;20167;-64
2021/11/05 06:36:10;;;;;;;1999.90;999.90;;;18.90;99.90;;;;;;5112021;28;20163;-64
2021/11/05 06:38:37;;;;;;;1999.90;999.90;;;19.00;99.90;;;;;;5113349;28;20167;-68
2021/11/05 06:41:04;;;;;;;1999.90;999.90;;;19.30;99.90;;;;;;5113425;28;20178;-66
2021/11/05 06:43:31;;;;;;;1999.90;999.90;;;19.50;99.90;;;;;;5113262;28;20187;-72
2021/11/05 06:45:58;;;;;;;1999.90;999.90;;;19.70;99.90;;;;;;5113588;28;20175;-71
2021/11/05 06:48:25;;;;;;;1999.90;999.90;;;19.80;99.90;;;;;;5113515;28;20174;-69
2021/11/05 06:50:56;;;;;;;1999.90;999.90;;;20.00;99.90;;;;;;5113390;28;20228;-69
2021/11/05 06:53:23;;;;;;;1999.90;999.90;;;20.10;99.40;;;;;;5113138;28;20739;-66
2021/11/05 06:55:51;;;;;;;1999.90;999.90;;;20.10;95.60;;;;;;5113327;28;20170;-66
2021/11/05 06:58:18;;;;;;;1999.90;999.90;;;20.20;94.90;;;;;;5113283;28;20633;-68
2021/11/05 07:00:45;;;;;;;1999.90;999.90;;;20.30;90.90;;;;;;5113265;28;20204;-69
2021/11/05 07:03:12;;;;;;;1999.90;999.90;;;20.30;88.40;;;;;;5113245;28;20198;-67
2021/11/05 07:05:38;;;;;;;1999.90;999.90;;;20.30;90.40;;;;;;5113235;28;20175;-64
2021/11/05 07:08:05;;;;;;;1999.90;999.90;;;20.20;86.60;;;;;;5113123;28;20175;-67
2021/11/05 07:10:32;;;;;;;1999.90;999.90;;;19.80;90.70;;;;;;5113379;28;20164;-67
2021/11/05 07:12:59;;;;;;;1999.90;999.90;;;19.70;93.50;;;;;;5117354;28;20170;-65
2021/11/05 07:15:26;;;;;;;1999.90;999.90;;;19.90;93.00;;;;;;5117069;28;20251;-72
2021/11/05 07:17:53;;;;;;;1999.90;999.90;;;20.10;92.00;;;;;;5117224;28;20159;-76
2021/11/05 07:20:20;;;;;;;1999.90;999.90;;;20.40;89.60;;;;;;5116504;28;20253;-64
2021/11/05 07:22:47;;;;;;;1999.90;999.90;;;20.70;91.50;;;;;;5117114;28;20167;-68
2021/11/05 07:25:15;;;;;;;1999.90;999.90;;;21.10;86.70;;;;;;5117075;28;20195;-71
2021/11/05 07:27:43;;;;;;;1999.90;999.90;;;21.30;81.90;;;;;;5117303;28;20159;-72
2021/11/05 07:30:12;;;;;;;1999.90;999.90;;;21.50;78.60;;;;;;5116865;28;20182;-69
2021/11/05 07:32:46;;;;;;;1999.90;999.90;;;21.60;77.30;;;;;;5116951;27;20167;-67
2021/11/05 07:35:15;;;;;;;1999.90;999.90;;;21.80;77.80;;;;;;5116962;28;20246;-69
2021/11/05 07:37:42;;;;;;;1999.90;999.90;;;22.00;78.80;;;;;;5116878;28;20261;-67
2021/11/05 07:40:10;;;;;;;1999.90;999.90;;;22.40;77.00;;;;;;5116794;28;20164;-74
2021/11/05 07:42:41;;;;;;;1999.90;999.90;;;22.50;76.00;;;;;;5116919;28;20637;-67
2021/11/05 07:45:11;;;;;;;1999.90;999.90;;;22.70;71.70;;;;;;5116805;28;20199;-67
2021/11/05 07:47:39;;;;;;;1999.90;999.90;;;22.70;71.50;;;;;;5116828;28;20156;-68
2021/11/05 07:50:08;;;;;;;1999.90;999.90;;;22.90;70.20;;;;;;5116843;28;20684;-68
2021/11/05 07:52:36;;;;;;;1999.90;999.90;;;23.10;68.50;;;;;;5116377;28;20606;-68
2021/11/05 07:55:04;;;;;;;1999.90;999.90;;;23.20;65.80;;;;;;5116590;28;20167;-68
2021/11/05 07:57:31;;;;;;;1999.90;999.90;;;23.00;64.00;;;;;;5116537;28;20167;-64
2021/11/05 07:59:58;;;;;;;1999.90;999.90;;;23.10;65.70;;;;;;5116565;28;20171;-71
2021/11/05 08:02:25;;;;;;;1999.90;999.90;;;23.30;64.10;;;;;;5116487;28;20205;-68
2021/11/05 08:04:52;;;;;;;1999.90;999.90;;;23.50;62.70;;;;;;5116222;28;20195;-70
2021/11/05 08:07:21;;;;;;;1999.90;999.90;;;22.90;63.70;;;;;;5116204;28;20660;-67
2021/11/05 08:09:49;;;;;;;1999.90;999.90;;;22.90;64.20;;;;;;5115999;28;20168;-68
2021/11/05 08:12:16;;;;;;;1999.90;999.90;;;22.60;63.00;;;;;;5116034;28;20567;-66
2021/11/05 08:14:44;;;;;;;1999.90;999.90;;;22.70;63.90;;;;;;5116240;28;20199;-68
2021/11/05 08:17:11;;;;;;;1999.90;999.90;;;22.50;66.30;;;;;;5116058;28;20155;-70
2021/11/05 08:19:38;;;;;;;1999.90;999.90;;;23.00;63.60;;;;;;5116134;28;20175;-67
2021/11/05 08:22:05;;;;;;;1999.90;999.90;;;23.40;60.40;;;;;;5116243;28;20279;-69
2021/11/05 08:24:32;;;;;;;1999.90;999.90;;;23.60;57.60;;;;;;5115109;28;20248;-68
2021/11/05 08:27:00;;;;;;;1999.90;999.90;;;23.20;58.30;;;;;;5115907;28;20629;-70
2021/11/05 08:29:27;;;;;;;1999.90;999.90;;;22.60;59.20;;;;;;5115715;28;20171;-68
2021/11/05 08:31:54;;;;;;;1999.90;999.90;;;22.50;60.90;;;;;;5115926;28;20194;-71
2021/11/05 08:34:21;;;;;;;1999.90;999.90;;;23.50;58.80;;;;;;5115846;28;20171;-72
2021/11/05 08:36:48;;;;;;;1999.90;999.90;;;24.30;56.40;;;;;;5115737;27;20212;-69
2021/11/05 08:39:14;;;;;;;1999.90;999.90;;;24.30;55.80;;;;;;5115660;28;20201;-71
2021/11/05 08:41:41;;;;;;;1999.90;999.90;;;24.40;54.00;;;;;;5115884;28;20159;-70
2021/11/05 08:44:10;;;;;;;1999.90;999.90;;;24.90;53.30;;;;;;5115622;27;20556;-70
2021/11/05 08:46:38;;;;;;;1999.90;999.90;;;25.20;50.90;;;;;;5115863;28;20216;-69
2021/11/05 08:49:11;;;;;;;1999.90;999.90;;;24.90;51.10;;;;;;5115715;28;20172;-73
2021/11/05 08:51:43;;;;;;;1999.90;999.90;;;24.50;52.70;;;;;;5115660;28;20202;-67
2021/11/05 08:54:11;;;;;;;1999.90;999.90;;;24.30;53.40;;;;;;5115764;28;20617;-68
2021/11/05 08:56:39;;;;;;;1999.90;999.90;;;24.20;53.90;;;;;;5115847;28;20171;-74
2021/11/05 08:59:06;;;;;;;1999.90;999.90;;;23.80;54.40;;;;;;5114151;28;20579;-68
2021/11/05 09:01:33;;;;;;;1999.90;999.90;;;23.60;55.10;;;;;;5115299;28;20207;-72
2021/11/05 09:04:00;;;;;;;1999.90;999.90;;;23.20;56.20;;;;;;5115248;28;20206;-71
2021/11/05 09:06:27;;;;;;;1999.90;999.90;;;22.90;56.50;;;;;;5115454;28;20633;-75
2021/11/05 09:08:56;;;;;;;1999.90;999.90;;;22.70;57.00;;;;;;5114239;28;20296;-65
2021/11/05 09:11:23;;;;;;;1999.90;999.90;;;22.70;57.20;;;;;;5114723;28;20171;-68
2021/11/05 09:13:50;;;;;;;1999.90;999.90;;;22.60;57.20;;;;;;5115019;27;20584;-70
2021/11/05 09:16:17;;;;;;;1999.90;999.90;;;22.50;57.40;;;;;;5114978;28;20219;-68
2021/11/05 09:18:44;;;;;;;1999.90;999.90;;;22.30;58.10;;;;;;5115200;28;20187;-69
2021/11/05 09:21:11;;;;;;;1999.90;999.90;;;22.50;57.90;;;;;;5116969;28;20645;-70
2021/11/05 09:23:38;;;;;;;1999.90;999.90;;;22.80;57.20;;;;;;5115017;28;20207;-71
2021/11/05 09:26:05;;;;;;;1999.90;999.90;;;22.90;56.60;;;;;;5114718;28;20575;-69
2021/11/05 09:28:32;;;;;;;1999.90;999.90;;;22.90;55.40;;;;;;5115157;28;20175;-69
2021/11/05 09:31:00;;;;;;;1999.90;999.90;;;22.70;57.40;;;;;;5114570;28;20197;-71
2021/11/05 09:33:26;;;;;;;1999.90;999.90;;;22.70;57.80;;;;;;5116157;28;20159;-71
2021/11/05 09:35:53;;;;;;;1999.90;999.90;;;22.80;55.60;;;;;;5114920;28;20166;-71
2021/11/05 09:38:21;;;;;;;1999.90;999.90;;;22.90;57.50;;;;;;5114988;28;20175;-72
2021/11/05 09:40:51;;;;;;;1999.90;999.90;;;23.10;59.00;;;;;;5114452;28;20625;-69
2021/11/05 09:43:19;;;;;;;1999.90;999.90;;;23.10;56.50;;;;;;5114587;28;20218;-71
2021/11/05 09:45:46;;;;;;;1999.90;999.90;;;22.70;57.60;;;;;;5114445;28;20167;-70
2021/11/05 09:48:14;;;;;;;1999.90;999.90;;;22.50;57.60;;;;;;5114361;28;20304;-70
2021/11/05 09:50:41;;;;;;;1999.90;999.90;;;22.30;58.80;;;;;;5114335;28;20171;-69
2021/11/05 09:53:08;;;;;;;1999.90;999.90;;;22.40;58.90;;;;;;5113957;28;20227;-71
2021/11/05 09:55:40;;;;;;;1999.90;999.90;;;22.70;56.90;;;;;;5114061;28;20281;-71
2021/11/05 09:58:07;;;;;;;1999.90;999.90;;;23.40;56.90;;;;;;5115087;28;20637;-68
2021/11/05 10:00:33;;;;;;;1999.90;999.90;;;23.80;56.10;;;;;;5113844;28;20183;-65
2021/11/05 10:03:00;;;;;;;1999.90;999.90;;;23.80;54.40;;;;;;5113705;28;20159;-68
2021/11/05 10:05:28;;;;;;;1999.90;999.90;;;24.00;54.10;;;;;;5114043;28;20637;-76
2021/11/05 10:07:58;;;;;;;1999.90;999.90;;;24.30;52.10;;;;;;5113925;28;20224;-73
2021/11/05 10:10:32;;;;;;;1999.90;999.90;;;24.30;52.20;;;;;;5113746;28;20216;-72
2021/11/05 10:13:03;;;;;;;1999.90;999.90;;;24.50;51.80;;;;;;5113722;28;20609;-65
2021/11/05 10:15:41;;;;;;;1999.90;999.90;;;24.50;52.10;;;;;;5114025;28;20201;-74
2021/11/05 10:18:09;;;;;;;1999.90;999.90;;;24.50;51.30;;;;;;5113736;28;20168;-72
2021/11/05 10:20:36;;;;;;;1999.90;999.90;;;24.50;52.30;;;;;;5113651;28;20564;-75
2021/11/05 10:23:05;;;;;;;1999.90;999.90;;;24.40;50.40;;;;;;5113670;28;20160;-72
2021/11/05 10:25:40;;;;;;;1999.90;999.90;;;24.50;50.90;;;;;;5113578;28;20213;-74
2021/11/05 10:28:25;;;;;;;1999.90;999.90;;;24.70;51.60;;;;;;5113696;28;20159;-70
2021/11/05 10:30:54;;;;;;;1999.90;999.90;;;25.00;50.70;;;;;;5113279;28;20521;-65
2021/11/05 10:33:28;;;;;;;1999.90;999.90;;;24.90;50.00;;;;;;5113515;28;20536;-64
2021/11/05 10:35:58;;;;;;;1999.90;999.90;;;24.50;50.30;;;;;;5113579;28;20177;-68
2021/11/05 10:38:25;;;;;;;1999.90;999.90;;;24.60;50.20;;;;;;5113516;28;20163;-70
2021/11/05 10:41:00;;;;;;;1999.90;999.90;;;25.00;49.60;;;;;;5113625;28;20631;-65
2021/11/05 10:43:48;;;;;;;1999.90;999.90;;;24.80;48.30;;;;;;5113383;28;20296;-66
2021/11/05 10:46:34;;;;;;;1999.90;999.90;;;24.70;48.70;;;;;;5112902;28;20517;-68
2021/11/05 10:49:05;;;;;;;1999.90;999.90;;;24.50;49.90;;;;;;5113362;28;20163;-68
2021/11/05 10:51:33;;;;;;;1999.90;999.90;;;24.60;48.90;;;;;;5113217;28;20231;-68
2021/11/05 10:54:02;;;;;;;1999.90;999.90;;;24.70;49.10;;;;;;5112029;28;20784;-68
2021/11/05 10:56:31;;;;;;;1999.90;999.90;;;24.90;48.50;;;;;;5113327;28;20166;-66
2021/11/05 10:59:03;;;;;;;1999.90;999.90;;;25.00;49.90;;;;;;5113372;28;20163;-67
2021/11/05 11:01:34;;;;;;;1999.90;999.90;;;25.10;48.60;;;;;;5113225;28;20165;-75
2021/11/05 11:04:03;;;;;;;1999.90;999.90;;;25.00;48.90;;;;;;5113232;28;20695;-70
2021/11/05 11:06:37;;;;;;;1999.90;999.90;;;25.00;48.60;;;;;;5113084;28;20254;-70
2021/11/05 11:09:19;;;;;;;1999.90;999.90;;;24.90;48.90;;;;;;5113102;28;20493;-74
2021/11/05 11:11:49;;;;;;;1999.90;999.90;;;25.40;49.10;;;;;;5113026;28;20208;-74
2021/11/05 11:14:18;;;;;;;1999.90;999.90;;;25.70;48.10;;;;;;5113492;28;20198;-72
2021/11/05 11:16:57;;;;;;;1999.90;999.90;;;25.60;46.90;;;;;;5112919;28;20671;-75
2021/11/05 11:19:26;;;;;;;1999.90;999.90;;;25.50;46.30;;;;;;5113076;28;20212;-75
2021/11/05 11:21:59;;;;;;;1999.90;999.90;;;25.00;46.60;;;;;;5113087;28;20156;-70
2021/11/05 11:24:29;;;;;;;1999.90;999.90;;;25.10;46.90;;;;;;5112727;28;20190;-69
2021/11/05 11:26:57;;;;;;;1999.90;999.90;;;25.10;46.20;;;;;;5112937;28;20163;-70
2021/11/05 11:29:26;;;;;;;1999.90;999.90;;;25.30;46.10;;;;;;5113142;28;20171;-71
2021/11/05 11:31:55;;;;;;;1999.90;999.90;;;25.40;46.10;;;;;;5113062;28;20213;-70
2021/11/05 11:34:23;;;;;;;1999.90;999.90;;;25.10;46.60;;;;;;5113042;28;20167;-71
2021/11/05 11:36:58;;;;;;;1999.90;999.90;;;24.90;46.60;;;;;;5113077;28;20250;-71
2021/11/05 11:39:28;;;;;;;1999.90;999.90;;;24.70;46.40;;;;;;5113179;28;20159;-69
2021/11/05 11:41:56;;;;;;;1999.90;999.90;;;24.90;46.30;;;;;;5113343;28;20168;-73
2021/11/05 11:44:25;;;;;;;1999.90;999.90;;;24.70;45.40;;;;;;5112855;28;20203;-68
2021/11/05 11:47:06;;;;;;;1999.90;999.90;;;24.90;46.80;;;;;;5111511;28;20167;-70
2021/11/05 11:49:44;;;;;;;1999.90;999.90;;;25.20;44.90;;;;;;5112826;28;20208;-74
2021/11/05 11:52:21;;;;;;;1999.90;999.90;;;25.30;45.10;;;;;;5111424;28;20215;-69
2021/11/05 11:54:51;;;;;;;1999.90;999.90;;;25.40;44.00;;;;;;5112933;28;20220;-69
2021/11/05 11:57:32;;;;;;;1999.90;999.90;;;25.40;45.10;;;;;;5112332;28;20200;-69
2021/11/05 12:00:23;;;;;;;1999.90;999.90;;;25.50;44.80;;;;;;5116671;28;20514;-71
